sensor_id;sensor_type;location;lat;lon;timestamp;P1;durP1;ratioP1;P2;durP2;ratioP2
84474;SDS011;74699;43.068;0.152;2024-01-30T00:02:09;5.50;;;2.60;;
84474;SDS011;74699;43.068;0.152;2024-01-30T00:04:35;4.47;;;2.28;;
84474;SDS011;74699;43.068;0.152;2024-01-30T00:07:01;5.00;;;2.45;;
84474;SDS011;74699;43.068;0.152;2024-01-30T00:09:27;4.20;;;2.58;;
84474;SDS011;74699;43.068;0.152;2024-01-30T00:11:53;4.90;;;2.50;;
84474;SDS011;74699;43.068;0.152;2024-01-30T00:14:19;3.75;;;1.90;;
84474;SDS011;74699;43.068;0.152;2024-01-30T00:16:45;4.22;;;2.50;;
84474;SDS011;74699;43.068;0.152;2024-01-30T00:19:11;5.05;;;2.80;;
84474;SDS011;74699;43.068;0.152;2024-01-30T00:21:37;4.68;;;2.10;;
84474;SDS011;74699;43.068;0.152;2024-01-30T00:24:03;5.30;;;2.63;;
84474;SDS011;74699;43.068;0.152;2024-01-30T00:26:29;4.20;;;2.50;;
84474;SDS011;74699;43.068;0.152;2024-01-30T00:28:55;4.57;;;2.78;;
84474;SDS011;74699;43.068;0.152;2024-01-30T00:31:21;5.10;;;2.47;;
84474;SDS011;74699;43.068;0.152;2024-01-30T00:33:47;3.90;;;1.85;;
84474;SDS011;74699;43.068;0.152;2024-01-30T00:36:13;4.53;;;2.50;;
84474;SDS011;74699;43.068;0.152;2024-01-30T00:38:39;5.00;;;2.22;;
84474;SDS011;74699;43.068;0.152;2024-01-30T00:41:06;4.25;;;2.20;;
84474;SDS011;74699;43.068;0.152;2024-01-30T00:43:32;4.55;;;2.10;;
84474;SDS011;74699;43.068;0.152;2024-01-30T00:45:58;3.80;;;2.25;;
84474;SDS011;74699;43.068;0.152;2024-01-30T00:48:24;3.42;;;2.22;;
84474;SDS011;74699;43.068;0.152;2024-01-30T00:50:50;5.20;;;2.25;;
84474;SDS011;74699;43.068;0.152;2024-01-30T00:53:16;4.10;;;2.20;;
84474;SDS011;74699;43.068;0.152;2024-01-30T00:55:43;4.40;;;1.90;;
84474;SDS011;74699;43.068;0.152;2024-01-30T00:58:09;3.70;;;2.13;;
84474;SDS011;74699;43.068;0.152;2024-01-30T01:00:35;4.32;;;2.00;;
84474;SDS011;74699;43.068;0.152;2024-01-30T01:03:01;5.43;;;2.17;;
84474;SDS011;74699;43.068;0.152;2024-01-30T01:05:27;4.30;;;2.30;;
84474;SDS011;74699;43.068;0.152;2024-01-30T01:07:53;4.65;;;2.15;;
84474;SDS011;74699;43.068;0.152;2024-01-30T01:10:19;3.83;;;2.20;;
84474;SDS011;74699;43.068;0.152;2024-01-30T01:12:45;4.32;;;2.20;;
84474;SDS011;74699;43.068;0.152;2024-01-30T01:15:11;4.10;;;2.20;;
84474;SDS011;74699;43.068;0.152;2024-01-30T01:17:38;3.80;;;1.75;;
84474;SDS011;74699;43.068;0.152;2024-01-30T01:20:04;4.55;;;2.53;;
84474;SDS011;74699;43.068;0.152;2024-01-30T01:22:31;4.10;;;2.13;;
84474;SDS011;74699;43.068;0.152;2024-01-30T01:24:57;3.97;;;1.92;;
84474;SDS011;74699;43.068;0.152;2024-01-30T01:27:23;5.22;;;3.03;;
84474;SDS011;74699;43.068;0.152;2024-01-30T01:29:50;4.38;;;2.25;;
84474;SDS011;74699;43.068;0.152;2024-01-30T01:32:16;4.28;;;2.30;;
84474;SDS011;74699;43.068;0.152;2024-01-30T01:34:42;3.75;;;2.20;;
84474;SDS011;74699;43.068;0.152;2024-01-30T01:37:08;4.35;;;1.90;;
84474;SDS011;74699;43.068;0.152;2024-01-30T01:39:34;3.30;;;1.75;;
84474;SDS011;74699;43.068;0.152;2024-01-30T01:42:00;4.68;;;1.90;;
84474;SDS011;74699;43.068;0.152;2024-01-30T01:44:27;4.40;;;2.20;;
84474;SDS011;74699;43.068;0.152;2024-01-30T01:46:53;5.32;;;2.35;;
84474;SDS011;74699;43.068;0.152;2024-01-30T01:49:20;3.95;;;2.05;;
84474;SDS011;74699;43.068;0.152;2024-01-30T01:51:47;4.55;;;2.30;;
84474;SDS011;74699;43.068;0.152;2024-01-30T01:54:14;3.50;;;1.92;;
84474;SDS011;74699;43.068;0.152;2024-01-30T01:56:40;4.43;;;2.05;;
84474;SDS011;74699;43.068;0.152;2024-01-30T01:59:07;3.92;;;2.20;;
84474;SDS011;74699;43.068;0.152;2024-01-30T02:01:34;3.72;;;2.20;;
84474;SDS011;74699;43.068;0.152;2024-01-30T02:06:27;4.40;;;2.10;;
84474;SDS011;74699;43.068;0.152;2024-01-30T02:08:53;4.15;;;2.00;;
84474;SDS011;74699;43.068;0.152;2024-01-30T02:11:20;5.05;;;2.10;;
84474;SDS011;74699;43.068;0.152;2024-01-30T02:13:46;5.40;;;2.42;;
84474;SDS011;74699;43.068;0.152;2024-01-30T02:16:12;3.65;;;1.92;;
84474;SDS011;74699;43.068;0.152;2024-01-30T02:18:38;4.28;;;2.50;;
84474;SDS011;74699;43.068;0.152;2024-01-30T02:23:38;3.10;;;1.70;;
84474;SDS011;74699;43.068;0.152;2024-01-30T02:26:05;4.32;;;1.75;;
84474;SDS011;74699;43.068;0.152;2024-01-30T02:28:31;4.63;;;2.15;;
84474;SDS011;74699;43.068;0.152;2024-01-30T02:30:57;5.65;;;2.35;;
84474;SDS011;74699;43.068;0.152;2024-01-30T02:33:23;3.92;;;2.42;;
84474;SDS011;74699;43.068;0.152;2024-01-30T02:35:49;4.93;;;2.22;;
84474;SDS011;74699;43.068;0.152;2024-01-30T02:38:15;3.85;;;2.08;;
84474;SDS011;74699;43.068;0.152;2024-01-30T02:40:41;3.97;;;1.98;;
84474;SDS011;74699;43.068;0.152;2024-01-30T02:43:07;4.63;;;2.25;;
84474;SDS011;74699;43.068;0.152;2024-01-30T02:45:33;3.33;;;1.63;;
84474;SDS011;74699;43.068;0.152;2024-01-30T02:48:00;3.72;;;2.15;;
84474;SDS011;74699;43.068;0.152;2024-01-30T02:50:26;3.78;;;1.70;;
84474;SDS011;74699;43.068;0.152;2024-01-30T02:52:52;3.33;;;1.90;;
84474;SDS011;74699;43.068;0.152;2024-01-30T02:55:18;5.10;;;2.20;;
84474;SDS011;74699;43.068;0.152;2024-01-30T02:57:44;3.45;;;1.67;;
84474;SDS011;74699;43.068;0.152;2024-01-30T03:00:10;3.55;;;1.73;;
84474;SDS011;74699;43.068;0.152;2024-01-30T03:02:36;4.28;;;1.73;;
84474;SDS011;74699;43.068;0.152;2024-01-30T03:05:03;4.22;;;2.17;;
84474;SDS011;74699;43.068;0.152;2024-01-30T03:07:29;3.83;;;1.90;;
84474;SDS011;74699;43.068;0.152;2024-01-30T03:09:55;4.10;;;2.03;;
84474;SDS011;74699;43.068;0.152;2024-01-30T03:12:21;4.38;;;2.03;;
84474;SDS011;74699;43.068;0.152;2024-01-30T03:14:48;4.32;;;2.17;;
84474;SDS011;74699;43.068;0.152;2024-01-30T03:17:14;3.20;;;1.65;;
84474;SDS011;74699;43.068;0.152;2024-01-30T03:19:40;3.67;;;2.08;;
84474;SDS011;74699;43.068;0.152;2024-01-30T03:22:06;3.90;;;2.03;;
84474;SDS011;74699;43.068;0.152;2024-01-30T03:24:33;5.50;;;2.45;;
84474;SDS011;74699;43.068;0.152;2024-01-30T03:26:59;3.40;;;1.52;;
84474;SDS011;74699;43.068;0.152;2024-01-30T03:29:25;4.28;;;2.15;;
84474;SDS011;74699;43.068;0.152;2024-01-30T03:31:51;4.00;;;1.88;;
84474;SDS011;74699;43.068;0.152;2024-01-30T03:34:17;4.15;;;2.15;;
84474;SDS011;74699;43.068;0.152;2024-01-30T03:36:43;3.53;;;1.60;;
84474;SDS011;74699;43.068;0.152;2024-01-30T03:39:09;5.20;;;1.90;;
84474;SDS011;74699;43.068;0.152;2024-01-30T03:41:35;4.65;;;2.10;;
84474;SDS011;74699;43.068;0.152;2024-01-30T03:44:02;4.22;;;2.00;;
84474;SDS011;74699;43.068;0.152;2024-01-30T03:46:28;3.17;;;2.00;;
84474;SDS011;74699;43.068;0.152;2024-01-30T03:48:54;3.72;;;2.30;;
84474;SDS011;74699;43.068;0.152;2024-01-30T03:51:20;4.40;;;1.90;;
84474;SDS011;74699;43.068;0.152;2024-01-30T03:53:46;4.88;;;2.10;;
84474;SDS011;74699;43.068;0.152;2024-01-30T03:56:12;3.78;;;1.80;;
84474;SDS011;74699;43.068;0.152;2024-01-30T03:58:39;4.18;;;1.95;;
84474;SDS011;74699;43.068;0.152;2024-01-30T04:01:05;4.68;;;2.78;;
84474;SDS011;74699;43.068;0.152;2024-01-30T04:03:31;3.97;;;2.17;;
84474;SDS011;74699;43.068;0.152;2024-01-30T04:05:57;2.92;;;1.58;;
84474;SDS011;74699;43.068;0.152;2024-01-30T04:08:23;4.60;;;2.22;;
84474;SDS011;74699;43.068;0.152;2024-01-30T04:10:49;3.00;;;1.80;;
84474;SDS011;74699;43.068;0.152;2024-01-30T04:13:15;3.13;;;1.63;;
84474;SDS011;74699;43.068;0.152;2024-01-30T04:15:41;3.55;;;1.70;;
84474;SDS011;74699;43.068;0.152;2024-01-30T04:18:07;4.35;;;2.42;;
84474;SDS011;74699;43.068;0.152;2024-01-30T04:20:33;4.05;;;2.05;;
84474;SDS011;74699;43.068;0.152;2024-01-30T04:22:59;3.42;;;1.95;;
84474;SDS011;74699;43.068;0.152;2024-01-30T04:25:25;4.22;;;2.38;;
84474;SDS011;74699;43.068;0.152;2024-01-30T04:27:51;2.70;;;1.45;;
84474;SDS011;74699;43.068;0.152;2024-01-30T04:30:17;5.13;;;2.45;;
84474;SDS011;74699;43.068;0.152;2024-01-30T04:32:43;4.38;;;2.20;;
84474;SDS011;74699;43.068;0.152;2024-01-30T04:35:10;3.33;;;1.80;;
84474;SDS011;74699;43.068;0.152;2024-01-30T04:37:36;3.42;;;1.70;;
84474;SDS011;74699;43.068;0.152;2024-01-30T04:40:02;3.88;;;1.90;;
84474;SDS011;74699;43.068;0.152;2024-01-30T04:42:28;3.33;;;1.85;;
84474;SDS011;74699;43.068;0.152;2024-01-30T04:44:54;2.30;;;1.40;;
84474;SDS011;74699;43.068;0.152;2024-01-30T04:47:20;4.22;;;2.00;;
84474;SDS011;74699;43.068;0.152;2024-01-30T04:49:46;3.15;;;1.63;;
84474;SDS011;74699;43.068;0.152;2024-01-30T04:52:12;3.85;;;1.88;;
84474;SDS011;74699;43.068;0.152;2024-01-30T04:54:38;3.80;;;1.73;;
84474;SDS011;74699;43.068;0.152;2024-01-30T04:57:04;3.58;;;1.38;;
84474;SDS011;74699;43.068;0.152;2024-01-30T04:59:37;4.25;;;2.05;;
84474;SDS011;74699;43.068;0.152;2024-01-30T05:02:03;3.88;;;2.33;;
84474;SDS011;74699;43.068;0.152;2024-01-30T05:04:29;3.67;;;2.35;;
84474;SDS011;74699;43.068;0.152;2024-01-30T05:06:55;3.65;;;1.67;;
84474;SDS011;74699;43.068;0.152;2024-01-30T05:09:21;3.65;;;1.75;;
84474;SDS011;74699;43.068;0.152;2024-01-30T05:11:47;3.28;;;1.65;;
84474;SDS011;74699;43.068;0.152;2024-01-30T05:14:13;3.25;;;1.70;;
84474;SDS011;74699;43.068;0.152;2024-01-30T05:16:40;3.97;;;1.95;;
84474;SDS011;74699;43.068;0.152;2024-01-30T05:19:08;2.55;;;1.35;;
84474;SDS011;74699;43.068;0.152;2024-01-30T05:21:34;3.38;;;1.83;;
84474;SDS011;74699;43.068;0.152;2024-01-30T05:24:00;3.33;;;1.70;;
84474;SDS011;74699;43.068;0.152;2024-01-30T05:26:26;4.22;;;1.88;;
84474;SDS011;74699;43.068;0.152;2024-01-30T05:28:52;3.00;;;1.73;;
84474;SDS011;74699;43.068;0.152;2024-01-30T05:31:18;2.72;;;1.48;;
84474;SDS011;74699;43.068;0.152;2024-01-30T05:33:44;5.53;;;2.00;;
84474;SDS011;74699;43.068;0.152;2024-01-30T05:36:13;4.00;;;1.50;;
84474;SDS011;74699;43.068;0.152;2024-01-30T05:38:40;2.85;;;1.30;;
84474;SDS011;74699;43.068;0.152;2024-01-30T05:41:06;5.10;;;1.60;;
84474;SDS011;74699;43.068;0.152;2024-01-30T05:43:32;3.90;;;1.88;;
84474;SDS011;74699;43.068;0.152;2024-01-30T05:45:58;3.10;;;1.50;;
84474;SDS011;74699;43.068;0.152;2024-01-30T05:48:24;3.22;;;1.75;;
84474;SDS011;74699;43.068;0.152;2024-01-30T05:50:50;4.53;;;1.63;;
84474;SDS011;74699;43.068;0.152;2024-01-30T05:53:16;3.00;;;1.48;;
84474;SDS011;74699;43.068;0.152;2024-01-30T05:55:42;3.28;;;1.65;;
84474;SDS011;74699;43.068;0.152;2024-01-30T05:58:08;2.25;;;1.40;;
84474;SDS011;74699;43.068;0.152;2024-01-30T06:00:34;3.72;;;1.25;;
84474;SDS011;74699;43.068;0.152;2024-01-30T06:03:00;3.80;;;1.85;;
84474;SDS011;74699;43.068;0.152;2024-01-30T06:05:26;3.88;;;1.88;;
84474;SDS011;74699;43.068;0.152;2024-01-30T06:07:52;2.75;;;1.60;;
84474;SDS011;74699;43.068;0.152;2024-01-30T06:10:18;3.40;;;1.63;;
84474;SDS011;74699;43.068;0.152;2024-01-30T06:12:44;4.43;;;2.10;;
84474;SDS011;74699;43.068;0.152;2024-01-30T06:15:11;4.82;;;2.38;;
84474;SDS011;74699;43.068;0.152;2024-01-30T06:17:37;2.95;;;1.40;;
84474;SDS011;74699;43.068;0.152;2024-01-30T06:20:04;4.47;;;2.20;;
84474;SDS011;74699;43.068;0.152;2024-01-30T06:22:30;3.50;;;1.92;;
84474;SDS011;74699;43.068;0.152;2024-01-30T06:24:56;3.47;;;1.77;;
84474;SDS011;74699;43.068;0.152;2024-01-30T06:27:22;3.50;;;1.75;;
84474;SDS011;74699;43.068;0.152;2024-01-30T06:29:48;3.53;;;2.00;;
84474;SDS011;74699;43.068;0.152;2024-01-30T06:32:14;3.05;;;1.42;;
84474;SDS011;74699;43.068;0.152;2024-01-30T06:34:40;3.47;;;1.90;;
84474;SDS011;74699;43.068;0.152;2024-01-30T06:37:09;2.28;;;1.48;;
84474;SDS011;74699;43.068;0.152;2024-01-30T06:39:35;3.25;;;1.35;;
84474;SDS011;74699;43.068;0.152;2024-01-30T06:42:01;4.00;;;2.10;;
84474;SDS011;74699;43.068;0.152;2024-01-30T06:44:27;5.35;;;1.67;;
84474;SDS011;74699;43.068;0.152;2024-01-30T06:46:53;3.30;;;1.48;;
84474;SDS011;74699;43.068;0.152;2024-01-30T06:49:19;3.63;;;1.77;;
84474;SDS011;74699;43.068;0.152;2024-01-30T06:51:46;2.95;;;1.75;;
84474;SDS011;74699;43.068;0.152;2024-01-30T06:54:12;4.07;;;2.03;;
84474;SDS011;74699;43.068;0.152;2024-01-30T06:56:39;4.05;;;1.55;;
84474;SDS011;74699;43.068;0.152;2024-01-30T06:59:05;4.07;;;2.30;;
84474;SDS011;74699;43.068;0.152;2024-01-30T07:01:31;4.82;;;2.30;;
84474;SDS011;74699;43.068;0.152;2024-01-30T07:03:57;4.35;;;2.13;;
84474;SDS011;74699;43.068;0.152;2024-01-30T07:06:24;4.47;;;2.13;;
84474;SDS011;74699;43.068;0.152;2024-01-30T07:08:50;4.32;;;2.00;;
84474;SDS011;74699;43.068;0.152;2024-01-30T07:11:19;5.32;;;2.22;;
84474;SDS011;74699;43.068;0.152;2024-01-30T07:13:50;4.82;;;2.33;;
84474;SDS011;74699;43.068;0.152;2024-01-30T07:16:16;4.95;;;2.40;;
84474;SDS011;74699;43.068;0.152;2024-01-30T07:18:43;4.00;;;2.30;;
84474;SDS011;74699;43.068;0.152;2024-01-30T07:21:09;4.60;;;2.58;;
84474;SDS011;74699;43.068;0.152;2024-01-30T07:23:35;3.78;;;1.98;;
84474;SDS011;74699;43.068;0.152;2024-01-30T07:26:04;4.45;;;2.08;;
84474;SDS011;74699;43.068;0.152;2024-01-30T07:28:30;4.78;;;2.42;;
84474;SDS011;74699;43.068;0.152;2024-01-30T07:30:56;5.88;;;2.90;;
84474;SDS011;74699;43.068;0.152;2024-01-30T07:33:22;6.35;;;3.47;;
84474;SDS011;74699;43.068;0.152;2024-01-30T07:35:48;4.47;;;2.80;;
84474;SDS011;74699;43.068;0.152;2024-01-30T07:38:14;3.83;;;2.13;;
84474;SDS011;74699;43.068;0.152;2024-01-30T07:40:40;6.13;;;2.55;;
84474;SDS011;74699;43.068;0.152;2024-01-30T07:43:06;6.00;;;2.47;;
84474;SDS011;74699;43.068;0.152;2024-01-30T07:45:33;4.05;;;2.53;;
84474;SDS011;74699;43.068;0.152;2024-01-30T07:47:59;4.20;;;2.63;;
84474;SDS011;74699;43.068;0.152;2024-01-30T07:50:25;5.50;;;2.50;;
84474;SDS011;74699;43.068;0.152;2024-01-30T07:52:51;5.35;;;2.40;;
84474;SDS011;74699;43.068;0.152;2024-01-30T07:55:23;5.00;;;2.70;;
84474;SDS011;74699;43.068;0.152;2024-01-30T07:57:56;6.45;;;3.10;;
84474;SDS011;74699;43.068;0.152;2024-01-30T08:00:24;5.25;;;2.92;;
84474;SDS011;74699;43.068;0.152;2024-01-30T08:02:50;4.22;;;2.58;;
84474;SDS011;74699;43.068;0.152;2024-01-30T08:05:19;3.80;;;2.20;;
84474;SDS011;74699;43.068;0.152;2024-01-30T08:07:47;3.63;;;1.90;;
84474;SDS011;74699;43.068;0.152;2024-01-30T08:10:14;4.15;;;2.50;;
84474;SDS011;74699;43.068;0.152;2024-01-30T08:12:40;5.60;;;2.60;;
84474;SDS011;74699;43.068;0.152;2024-01-30T08:15:06;5.07;;;2.85;;
84474;SDS011;74699;43.068;0.152;2024-01-30T08:17:33;4.80;;;2.85;;
84474;SDS011;74699;43.068;0.152;2024-01-30T08:19:59;4.90;;;2.95;;
84474;SDS011;74699;43.068;0.152;2024-01-30T08:22:25;4.47;;;2.50;;
84474;SDS011;74699;43.068;0.152;2024-01-30T08:24:51;6.45;;;2.40;;
84474;SDS011;74699;43.068;0.152;2024-01-30T08:27:17;4.60;;;2.33;;
84474;SDS011;74699;43.068;0.152;2024-01-30T08:29:43;4.97;;;2.50;;
84474;SDS011;74699;43.068;0.152;2024-01-30T08:32:09;6.53;;;2.60;;
84474;SDS011;74699;43.068;0.152;2024-01-30T08:34:35;4.93;;;3.08;;
84474;SDS011;74699;43.068;0.152;2024-01-30T08:37:02;5.18;;;2.70;;
84474;SDS011;74699;43.068;0.152;2024-01-30T08:39:28;5.47;;;2.85;;
84474;SDS011;74699;43.068;0.152;2024-01-30T08:41:54;5.38;;;3.20;;
84474;SDS011;74699;43.068;0.152;2024-01-30T08:44:20;5.00;;;2.38;;
84474;SDS011;74699;43.068;0.152;2024-01-30T08:46:46;5.57;;;3.17;;
84474;SDS011;74699;43.068;0.152;2024-01-30T08:49:13;5.03;;;2.47;;
84474;SDS011;74699;43.068;0.152;2024-01-30T08:51:39;4.05;;;2.22;;
84474;SDS011;74699;43.068;0.152;2024-01-30T08:54:05;5.88;;;2.72;;
84474;SDS011;74699;43.068;0.152;2024-01-30T08:56:32;4.53;;;2.70;;
84474;SDS011;74699;43.068;0.152;2024-01-30T08:58:58;4.47;;;2.22;;
84474;SDS011;74699;43.068;0.152;2024-01-30T09:01:27;2.95;;;1.77;;
84474;SDS011;74699;43.068;0.152;2024-01-30T09:03:53;4.80;;;2.85;;
84474;SDS011;74699;43.068;0.152;2024-01-30T09:06:19;4.40;;;2.80;;
84474;SDS011;74699;43.068;0.152;2024-01-30T09:08:45;8.80;;;4.40;;
84474;SDS011;74699;43.068;0.152;2024-01-30T09:11:11;7.25;;;3.75;;
84474;SDS011;74699;43.068;0.152;2024-01-30T09:13:38;5.35;;;3.60;;
84474;SDS011;74699;43.068;0.152;2024-01-30T09:16:04;5.22;;;3.83;;
84474;SDS011;74699;43.068;0.152;2024-01-30T09:18:30;5.45;;;3.58;;
84474;SDS011;74699;43.068;0.152;2024-01-30T09:20:56;6.30;;;4.13;;
84474;SDS011;74699;43.068;0.152;2024-01-30T09:23:23;5.95;;;2.97;;
84474;SDS011;74699;43.068;0.152;2024-01-30T09:25:49;6.18;;;3.00;;
84474;SDS011;74699;43.068;0.152;2024-01-30T09:28:16;5.75;;;3.40;;
84474;SDS011;74699;43.068;0.152;2024-01-30T09:30:43;5.03;;;2.95;;
84474;SDS011;74699;43.068;0.152;2024-01-30T09:33:09;5.57;;;3.25;;
84474;SDS011;74699;43.068;0.152;2024-01-30T09:35:35;5.75;;;3.38;;
84474;SDS011;74699;43.068;0.152;2024-01-30T09:38:02;5.82;;;3.58;;
84474;SDS011;74699;43.068;0.152;2024-01-30T09:40:28;5.63;;;3.38;;
84474;SDS011;74699;43.068;0.152;2024-01-30T09:42:54;7.75;;;4.03;;
84474;SDS011;74699;43.068;0.152;2024-01-30T09:45:24;8.93;;;3.70;;
84474;SDS011;74699;43.068;0.152;2024-01-30T09:47:50;8.30;;;4.03;;
84474;SDS011;74699;43.068;0.152;2024-01-30T09:50:16;7.03;;;4.13;;
84474;SDS011;74699;43.068;0.152;2024-01-30T09:52:43;8.93;;;4.07;;
84474;SDS011;74699;43.068;0.152;2024-01-30T09:57:35;8.32;;;4.80;;
84474;SDS011;74699;43.068;0.152;2024-01-30T10:00:02;8.13;;;4.40;;
84474;SDS011;74699;43.068;0.152;2024-01-30T10:04:55;7.68;;;4.43;;
84474;SDS011;74699;43.068;0.152;2024-01-30T10:07:21;9.35;;;4.60;;
84474;SDS011;74699;43.068;0.152;2024-01-30T10:09:48;7.05;;;3.95;;
84474;SDS011;74699;43.068;0.152;2024-01-30T10:12:15;6.93;;;3.80;;
84474;SDS011;74699;43.068;0.152;2024-01-30T10:14:42;4.95;;;3.00;;
84474;SDS011;74699;43.068;0.152;2024-01-30T10:19:35;6.50;;;2.80;;
84474;SDS011;74699;43.068;0.152;2024-01-30T10:22:01;5.22;;;3.35;;
84474;SDS011;74699;43.068;0.152;2024-01-30T10:24:27;6.18;;;3.08;;
84474;SDS011;74699;43.068;0.152;2024-01-30T10:26:55;6.18;;;2.88;;
84474;SDS011;74699;43.068;0.152;2024-01-30T10:29:21;5.00;;;2.80;;
84474;SDS011;74699;43.068;0.152;2024-01-30T10:32:00;6.18;;;3.53;;
84474;SDS011;74699;43.068;0.152;2024-01-30T10:34:26;5.97;;;3.15;;
84474;SDS011;74699;43.068;0.152;2024-01-30T10:37:01;5.22;;;3.10;;
84474;SDS011;74699;43.068;0.152;2024-01-30T10:39:31;5.20;;;2.47;;
84474;SDS011;74699;43.068;0.152;2024-01-30T10:41:59;4.50;;;2.30;;
84474;SDS011;74699;43.068;0.152;2024-01-30T10:44:29;5.35;;;3.10;;
84474;SDS011;74699;43.068;0.152;2024-01-30T10:46:56;4.78;;;2.92;;
84474;SDS011;74699;43.068;0.152;2024-01-30T10:49:26;6.03;;;2.67;;
84474;SDS011;74699;43.068;0.152;2024-01-30T10:51:53;5.38;;;2.78;;
84474;SDS011;74699;43.068;0.152;2024-01-30T10:56:45;6.78;;;3.45;;
84474;SDS011;74699;43.068;0.152;2024-01-30T10:59:12;7.20;;;3.45;;
84474;SDS011;74699;43.068;0.152;2024-01-30T11:01:38;6.15;;;3.03;;
84474;SDS011;74699;43.068;0.152;2024-01-30T11:06:32;6.82;;;2.70;;
84474;SDS011;74699;43.068;0.152;2024-01-30T11:09:09;4.07;;;2.50;;
84474;SDS011;74699;43.068;0.152;2024-01-30T11:11:56;7.07;;;2.72;;
84474;SDS011;74699;43.068;0.152;2024-01-30T11:14:26;6.07;;;2.65;;
84474;SDS011;74699;43.068;0.152;2024-01-30T11:16:53;4.40;;;2.40;;
84474;SDS011;74699;43.068;0.152;2024-01-30T11:19:22;4.55;;;2.70;;
84474;SDS011;74699;43.068;0.152;2024-01-30T11:21:54;6.60;;;3.00;;
84474;SDS011;74699;43.068;0.152;2024-01-30T11:24:22;5.18;;;2.63;;
84474;SDS011;74699;43.068;0.152;2024-01-30T11:26:49;5.53;;;2.92;;
84474;SDS011;74699;43.068;0.152;2024-01-30T11:29:16;6.53;;;3.33;;
84474;SDS011;74699;43.068;0.152;2024-01-30T11:31:53;4.78;;;3.15;;
84474;SDS011;74699;43.068;0.152;2024-01-30T11:34:19;6.93;;;2.97;;
84474;SDS011;74699;43.068;0.152;2024-01-30T11:36:48;5.55;;;3.53;;
84474;SDS011;74699;43.068;0.152;2024-01-30T11:39:18;4.97;;;2.40;;
84474;SDS011;74699;43.068;0.152;2024-01-30T11:41:46;5.00;;;2.42;;
84474;SDS011;74699;43.068;0.152;2024-01-30T11:44:12;5.68;;;2.72;;
84474;SDS011;74699;43.068;0.152;2024-01-30T11:46:38;5.85;;;3.38;;
84474;SDS011;74699;43.068;0.152;2024-01-30T11:49:04;6.05;;;3.50;;
84474;SDS011;74699;43.068;0.152;2024-01-30T11:51:30;4.43;;;2.38;;
84474;SDS011;74699;43.068;0.152;2024-01-30T11:53:57;4.15;;;2.75;;
84474;SDS011;74699;43.068;0.152;2024-01-30T11:56:26;3.35;;;2.63;;
84474;SDS011;74699;43.068;0.152;2024-01-30T11:58:52;4.70;;;2.90;;
84474;SDS011;74699;43.068;0.152;2024-01-30T12:01:18;4.80;;;2.85;;
84474;SDS011;74699;43.068;0.152;2024-01-30T12:03:50;4.85;;;2.60;;
84474;SDS011;74699;43.068;0.152;2024-01-30T12:06:17;5.10;;;2.63;;
84474;SDS011;74699;43.068;0.152;2024-01-30T12:08:43;4.15;;;2.65;;
84474;SDS011;74699;43.068;0.152;2024-01-30T12:11:19;3.55;;;2.42;;
84474;SDS011;74699;43.068;0.152;2024-01-30T12:13:45;5.50;;;3.45;;
84474;SDS011;74699;43.068;0.152;2024-01-30T12:16:11;7.13;;;3.20;;
84474;SDS011;74699;43.068;0.152;2024-01-30T12:18:38;6.30;;;3.47;;
84474;SDS011;74699;43.068;0.152;2024-01-30T12:23:30;6.00;;;3.90;;
84474;SDS011;74699;43.068;0.152;2024-01-30T12:28:22;5.60;;;3.25;;
84474;SDS011;74699;43.068;0.152;2024-01-30T12:30:48;5.03;;;3.35;;
84474;SDS011;74699;43.068;0.152;2024-01-30T12:35:40;6.20;;;2.90;;
84474;SDS011;74699;43.068;0.152;2024-01-30T12:38:11;5.43;;;3.10;;
84474;SDS011;74699;43.068;0.152;2024-01-30T12:40:37;5.50;;;3.38;;
84474;SDS011;74699;43.068;0.152;2024-01-30T12:45:29;5.45;;;2.90;;
84474;SDS011;74699;43.068;0.152;2024-01-30T12:47:55;5.28;;;3.10;;
84474;SDS011;74699;43.068;0.152;2024-01-30T12:50:23;5.28;;;3.00;;
84474;SDS011;74699;43.068;0.152;2024-01-30T12:55:15;7.30;;;3.03;;
84474;SDS011;74699;43.068;0.152;2024-01-30T12:57:41;4.03;;;2.92;;
84474;SDS011;74699;43.068;0.152;2024-01-30T13:00:08;4.30;;;2.38;;
84474;SDS011;74699;43.068;0.152;2024-01-30T13:02:34;5.10;;;3.13;;
84474;SDS011;74699;43.068;0.152;2024-01-30T13:05:02;4.60;;;3.40;;
84474;SDS011;74699;43.068;0.152;2024-01-30T13:07:29;4.88;;;3.47;;
84474;SDS011;74699;43.068;0.152;2024-01-30T13:09:56;5.38;;;2.92;;
84474;SDS011;74699;43.068;0.152;2024-01-30T13:12:28;5.35;;;2.97;;
84474;SDS011;74699;43.068;0.152;2024-01-30T13:14:54;6.47;;;3.85;;
84474;SDS011;74699;43.068;0.152;2024-01-30T13:17:20;5.63;;;2.95;;
84474;SDS011;74699;43.068;0.152;2024-01-30T13:19:46;6.70;;;3.70;;
84474;SDS011;74699;43.068;0.152;2024-01-30T13:22:15;5.93;;;3.92;;
84474;SDS011;74699;43.068;0.152;2024-01-30T13:24:41;5.88;;;3.58;;
84474;SDS011;74699;43.068;0.152;2024-01-30T13:27:07;4.50;;;3.00;;
84474;SDS011;74699;43.068;0.152;2024-01-30T13:29:34;5.75;;;3.53;;
84474;SDS011;74699;43.068;0.152;2024-01-30T13:32:00;6.13;;;4.07;;
84474;SDS011;74699;43.068;0.152;2024-01-30T13:34:26;4.80;;;2.72;;
84474;SDS011;74699;43.068;0.152;2024-01-30T13:36:52;6.40;;;3.35;;
84474;SDS011;74699;43.068;0.152;2024-01-30T13:39:18;5.78;;;3.72;;
84474;SDS011;74699;43.068;0.152;2024-01-30T13:41:44;6.18;;;3.30;;
84474;SDS011;74699;43.068;0.152;2024-01-30T13:44:10;6.93;;;3.70;;
84474;SDS011;74699;43.068;0.152;2024-01-30T13:46:36;6.25;;;3.60;;
84474;SDS011;74699;43.068;0.152;2024-01-30T13:49:04;5.85;;;3.10;;
84474;SDS011;74699;43.068;0.152;2024-01-30T13:51:30;5.05;;;3.08;;
84474;SDS011;74699;43.068;0.152;2024-01-30T13:56:22;4.97;;;3.72;;
84474;SDS011;74699;43.068;0.152;2024-01-30T14:01:15;6.80;;;3.60;;
84474;SDS011;74699;43.068;0.152;2024-01-30T14:03:41;6.20;;;3.60;;
84474;SDS011;74699;43.068;0.152;2024-01-30T14:08:33;6.75;;;4.00;;
84474;SDS011;74699;43.068;0.152;2024-01-30T14:10:59;6.28;;;3.90;;
84474;SDS011;74699;43.068;0.152;2024-01-30T14:13:25;6.57;;;4.10;;
84474;SDS011;74699;43.068;0.152;2024-01-30T14:15:51;7.03;;;3.83;;
84474;SDS011;74699;43.068;0.152;2024-01-30T14:18:18;6.60;;;4.30;;
84474;SDS011;74699;43.068;0.152;2024-01-30T14:20:44;6.88;;;4.18;;
84474;SDS011;74699;43.068;0.152;2024-01-30T14:23:10;6.97;;;5.25;;
84474;SDS011;74699;43.068;0.152;2024-01-30T14:25:36;6.68;;;4.15;;
84474;SDS011;74699;43.068;0.152;2024-01-30T14:30:28;6.57;;;4.18;;
84474;SDS011;74699;43.068;0.152;2024-01-30T14:32:54;5.88;;;4.28;;
84474;SDS011;74699;43.068;0.152;2024-01-30T14:35:21;7.10;;;4.55;;
84474;SDS011;74699;43.068;0.152;2024-01-30T14:37:47;6.57;;;3.95;;
84474;SDS011;74699;43.068;0.152;2024-01-30T14:42:39;7.82;;;4.90;;
84474;SDS011;74699;43.068;0.152;2024-01-30T14:47:31;7.63;;;4.35;;
84474;SDS011;74699;43.068;0.152;2024-01-30T14:52:23;7.35;;;4.53;;
84474;SDS011;74699;43.068;0.152;2024-01-30T14:57:15;6.32;;;4.57;;
84474;SDS011;74699;43.068;0.152;2024-01-30T14:59:41;7.97;;;4.85;;
84474;SDS011;74699;43.068;0.152;2024-01-30T15:02:08;8.77;;;4.50;;
84474;SDS011;74699;43.068;0.152;2024-01-30T15:04:34;7.30;;;4.97;;
84474;SDS011;74699;43.068;0.152;2024-01-30T15:07:00;6.43;;;5.13;;
84474;SDS011;74699;43.068;0.152;2024-01-30T15:09:26;6.43;;;4.55;;
84474;SDS011;74699;43.068;0.152;2024-01-30T15:11:52;6.30;;;3.85;;
84474;SDS011;74699;43.068;0.152;2024-01-30T15:14:18;7.30;;;4.13;;
84474;SDS011;74699;43.068;0.152;2024-01-30T15:16:44;6.60;;;4.43;;
84474;SDS011;74699;43.068;0.152;2024-01-30T15:21:36;6.78;;;4.22;;
84474;SDS011;74699;43.068;0.152;2024-01-30T15:26:28;5.53;;;3.60;;
84474;SDS011;74699;43.068;0.152;2024-01-30T15:28:54;6.28;;;4.57;;
84474;SDS011;74699;43.068;0.152;2024-01-30T15:31:20;7.40;;;4.70;;
84474;SDS011;74699;43.068;0.152;2024-01-30T15:33:47;8.60;;;4.68;;
84474;SDS011;74699;43.068;0.152;2024-01-30T15:36:13;6.97;;;4.75;;
84474;SDS011;74699;43.068;0.152;2024-01-30T15:38:39;7.68;;;4.72;;